createdAt,value
2023-08-16T00:00:39.796Z,19.74
2023-08-16T00:01:39.749Z,19.69
2023-08-16T00:02:39.800Z,19.63
2023-08-16T00:03:39.866Z,19.62
2023-08-16T00:04:39.810Z,19.58
2023-08-16T00:05:39.738Z,19.56
2023-08-16T00:06:40.705Z,19.56
2023-08-16T00:07:39.743Z,19.59
2023-08-16T00:08:39.732Z,19.71
2023-08-16T00:09:39.713Z,19.69
2023-08-16T00:10:39.694Z,19.64
2023-08-16T00:11:39.672Z,19.71
2023-08-16T00:12:39.695Z,19.76
2023-08-16T00:13:39.672Z,19.79
2023-08-16T00:14:39.656Z,19.84
2023-08-16T00:15:39.649Z,19.77
2023-08-16T00:16:39.687Z,19.76
2023-08-16T00:17:39.701Z,19.64
2023-08-16T00:18:39.628Z,19.76
2023-08-16T00:19:39.625Z,19.73
2023-08-16T00:20:39.612Z,19.71
2023-08-16T00:21:39.602Z,19.71
2023-08-16T00:22:39.628Z,19.73
2023-08-16T00:23:39.590Z,19.77
2023-08-16T00:24:39.592Z,19.70
2023-08-16T00:25:39.571Z,19.70
2023-08-16T00:26:39.595Z,19.70
2023-08-16T00:27:39.582Z,19.67
2023-08-16T00:28:39.545Z,19.64
2023-08-16T00:29:39.539Z,19.64
2023-08-16T00:30:39.602Z,19.51
2023-08-16T00:31:39.570Z,19.56
2023-08-16T00:32:39.566Z,19.58
2023-08-16T00:33:39.528Z,19.54
2023-08-16T00:34:39.536Z,19.62
2023-08-16T00:35:39.499Z,19.56
2023-08-16T00:36:39.500Z,19.51
2023-08-16T00:37:39.515Z,19.54
2023-08-16T00:38:39.495Z,19.55
2023-08-16T00:39:39.474Z,19.55
2023-08-16T00:40:39.479Z,19.63
2023-08-16T00:41:39.488Z,19.70
2023-08-16T00:42:39.448Z,19.66
2023-08-16T00:43:39.469Z,19.59
2023-08-16T00:44:40.218Z,19.55
2023-08-16T00:45:39.518Z,19.47
2023-08-16T00:46:39.466Z,19.52
2023-08-16T00:47:39.438Z,19.36
2023-08-16T00:48:39.418Z,19.34
2023-08-16T00:49:39.411Z,19.27
2023-08-16T00:50:39.438Z,19.07
2023-08-16T00:51:39.393Z,19.14
2023-08-16T00:52:39.368Z,19.08
2023-08-16T00:53:39.559Z,18.99
2023-08-16T00:54:39.403Z,19.08
2023-08-16T00:55:39.381Z,19.16
2023-08-16T00:56:39.357Z,19.18
2023-08-16T00:57:39.364Z,19.19
2023-08-16T00:58:39.341Z,19.24
2023-08-16T00:59:39.345Z,19.27
2023-08-16T01:00:39.333Z,19.21
2023-08-16T01:01:39.389Z,19.29
2023-08-16T01:02:39.400Z,19.40
2023-08-16T01:03:39.475Z,19.31
2023-08-16T01:04:39.323Z,19.37
2023-08-16T01:05:39.281Z,19.36
2023-08-16T01:06:39.270Z,19.33
2023-08-16T01:07:39.256Z,19.24
2023-08-16T01:08:39.273Z,19.33
2023-08-16T01:09:39.537Z,19.27
2023-08-16T01:10:39.235Z,19.33
2023-08-16T01:11:39.217Z,19.33
2023-08-16T01:12:39.214Z,19.27
2023-08-16T01:13:39.254Z,19.54
2023-08-16T01:14:39.414Z,19.51
2023-08-16T01:15:39.222Z,19.52
2023-08-16T01:16:39.187Z,19.49
2023-08-16T01:17:39.202Z,19.59
2023-08-16T01:18:39.219Z,19.62
2023-08-16T01:19:39.168Z,19.69
2023-08-16T01:20:39.244Z,19.66
2023-08-16T01:21:39.199Z,19.69
2023-08-16T01:22:39.173Z,19.66
2023-08-16T01:23:39.164Z,19.63
2023-08-16T01:24:39.135Z,19.70
2023-08-16T01:25:39.129Z,19.67
2023-08-16T01:26:39.110Z,19.59
2023-08-16T01:27:39.125Z,19.62
2023-08-16T01:28:39.108Z,19.64
2023-08-16T01:29:39.110Z,19.63
2023-08-16T01:30:39.089Z,19.74
2023-08-16T01:31:39.125Z,19.77
2023-08-16T01:32:39.118Z,19.71
2023-08-16T01:33:39.072Z,19.76
2023-08-16T01:34:40.060Z,19.70
2023-08-16T01:35:39.053Z,19.73
2023-08-16T01:36:39.141Z,19.48
2023-08-16T01:37:39.045Z,19.51
2023-08-16T01:38:39.033Z,19.49
2023-08-16T01:39:39.038Z,19.44
2023-08-16T01:40:41.044Z,19.39
2023-08-16T01:41:40.049Z,19.47
2023-08-16T01:42:39.024Z,19.45
2023-08-16T01:43:38.999Z,19.47
2023-08-16T01:44:38.973Z,19.55
2023-08-16T01:45:39.065Z,19.58
2023-08-16T01:46:39.108Z,19.56
2023-08-16T01:47:39.002Z,19.54
2023-08-16T01:48:38.963Z,19.69
2023-08-16T01:49:38.940Z,19.67
2023-08-16T01:50:38.942Z,19.59
2023-08-16T01:51:38.947Z,19.66
2023-08-16T01:52:38.905Z,19.79
2023-08-16T01:53:39.129Z,19.76
2023-08-16T01:54:38.903Z,19.71
2023-08-16T01:55:38.905Z,19.71
2023-08-16T01:56:38.875Z,19.59
2023-08-16T01:57:38.882Z,19.51
2023-08-16T01:58:38.872Z,19.45
2023-08-16T01:59:38.860Z,19.47
2023-08-16T02:00:38.873Z,19.51
2023-08-16T02:01:38.879Z,19.52
2023-08-16T02:02:38.942Z,19.54
2023-08-16T02:03:38.925Z,19.47
2023-08-16T02:04:38.907Z,19.51
2023-08-16T02:05:38.848Z,19.51
2023-08-16T02:06:38.841Z,19.55
2023-08-16T02:07:38.925Z,19.55
2023-08-16T02:08:38.903Z,19.48
2023-08-16T02:09:38.975Z,19.51
2023-08-16T02:10:38.788Z,19.52
2023-08-16T02:11:38.786Z,19.49
2023-08-16T02:12:38.779Z,19.55
2023-08-16T02:13:38.775Z,19.59
2023-08-16T02:14:38.820Z,19.47
2023-08-16T02:15:38.806Z,19.54
2023-08-16T02:16:38.745Z,19.44
2023-08-16T02:17:38.775Z,19.41
2023-08-16T02:18:38.748Z,19.52
2023-08-16T02:19:38.776Z,19.40
2023-08-16T02:20:38.708Z,19.52
2023-08-16T02:21:38.712Z,19.54
2023-08-16T02:22:43.107Z,19.55
2023-08-16T02:23:40.702Z,19.51
2023-08-16T02:24:38.675Z,19.47
2023-08-16T02:25:38.671Z,19.47
2023-08-16T02:26:38.689Z,19.47
2023-08-16T02:27:38.657Z,19.36
2023-08-16T02:28:38.680Z,19.33
2023-08-16T02:29:38.640Z,19.29
2023-08-16T02:30:38.637Z,19.30
2023-08-16T02:31:38.643Z,19.41
2023-08-16T02:32:38.683Z,19.37
2023-08-16T02:33:38.631Z,19.39
2023-08-16T02:34:38.613Z,19.44
2023-08-16T02:35:38.601Z,19.41
2023-08-16T02:36:38.687Z,19.40
2023-08-16T02:37:38.607Z,19.36
2023-08-16T02:38:38.581Z,19.34
2023-08-16T02:39:38.574Z,19.39
2023-08-16T02:40:38.634Z,19.37
2023-08-16T02:41:38.568Z,19.40
2023-08-16T02:42:38.589Z,19.37
2023-08-16T02:43:38.536Z,19.45
2023-08-16T02:44:38.535Z,19.49
2023-08-16T02:45:38.543Z,19.54
2023-08-16T02:46:38.624Z,19.51
2023-08-16T02:47:38.805Z,19.37
2023-08-16T02:48:38.518Z,19.40
2023-08-16T02:49:38.494Z,19.34
2023-08-16T02:50:38.521Z,19.36
2023-08-16T02:51:38.752Z,19.34
2023-08-16T02:52:38.507Z,19.37
2023-08-16T02:53:38.471Z,19.40
2023-08-16T02:54:38.460Z,19.49
2023-08-16T02:55:38.506Z,19.51
2023-08-16T02:56:38.590Z,19.47
2023-08-16T02:57:38.438Z,19.48
2023-08-16T02:58:38.429Z,19.54
2023-08-16T02:59:38.423Z,19.56
2023-08-16T03:00:38.481Z,19.55
2023-08-16T03:01:38.435Z,19.55
2023-08-16T03:02:38.511Z,19.73
2023-08-16T03:03:38.399Z,19.59
2023-08-16T03:04:38.385Z,19.71
2023-08-16T03:05:38.730Z,19.64
2023-08-16T03:06:38.408Z,19.70
2023-08-16T03:07:38.364Z,19.66
2023-08-16T03:08:38.360Z,19.66
2023-08-16T03:09:38.358Z,19.69
2023-08-16T03:10:38.392Z,19.66
2023-08-16T03:11:38.334Z,19.59
2023-08-16T03:12:38.345Z,19.56
2023-08-16T03:13:38.326Z,19.49
2023-08-16T03:14:38.329Z,19.51
2023-08-16T03:15:38.299Z,19.51
2023-08-16T03:16:38.350Z,19.56
2023-08-16T03:17:38.349Z,19.63
2023-08-16T03:18:38.291Z,19.76
2023-08-16T03:19:38.328Z,19.77
2023-08-16T03:20:38.284Z,19.70
2023-08-16T03:21:38.257Z,19.74
2023-08-16T03:22:38.250Z,19.63
2023-08-16T03:23:38.267Z,19.69
2023-08-16T03:24:38.266Z,19.67
2023-08-16T03:25:38.252Z,19.55
2023-08-16T03:26:38.218Z,19.63
2023-08-16T03:27:38.237Z,19.54
2023-08-16T03:28:38.232Z,19.55
2023-08-16T03:29:38.208Z,19.55
2023-08-16T03:30:38.240Z,19.66
2023-08-16T03:31:38.191Z,19.51
2023-08-16T03:32:38.182Z,19.55
2023-08-16T03:33:38.194Z,19.52
2023-08-16T03:34:38.168Z,19.51
2023-08-16T03:35:38.153Z,19.49
2023-08-16T03:36:38.133Z,19.56
2023-08-16T03:37:39.158Z,19.74
2023-08-16T03:38:38.135Z,19.70
2023-08-16T03:39:38.119Z,19.69
2023-08-16T03:40:38.119Z,19.73
2023-08-16T03:41:38.148Z,19.70
2023-08-16T03:42:38.113Z,19.76
2023-08-16T03:43:38.133Z,19.79
2023-08-16T03:44:38.082Z,19.77
2023-08-16T03:45:38.071Z,19.70
2023-08-16T03:46:38.161Z,19.70
2023-08-16T03:47:38.120Z,19.66
2023-08-16T03:48:38.058Z,19.63
2023-08-16T03:49:38.041Z,19.67
2023-08-16T03:50:38.050Z,19.66
2023-08-16T03:51:38.065Z,19.70
2023-08-16T03:52:38.042Z,19.71
2023-08-16T03:53:38.011Z,19.76
2023-08-16T03:54:38.027Z,19.76
2023-08-16T03:55:38.000Z,19.76
2023-08-16T03:56:38.012Z,19.71
2023-08-16T03:57:37.991Z,19.82
2023-08-16T03:58:38.001Z,19.84
2023-08-16T03:59:37.984Z,19.77
2023-08-16T04:00:37.967Z,19.84
2023-08-16T04:01:38.032Z,19.84
2023-08-16T04:02:38.072Z,19.84
2023-08-16T04:03:38.007Z,19.79
2023-08-16T04:04:37.935Z,19.70
2023-08-16T04:05:37.974Z,19.79
2023-08-16T04:06:37.958Z,19.73
2023-08-16T04:07:37.921Z,19.73
2023-08-16T04:08:37.904Z,19.76
2023-08-16T04:09:37.932Z,19.71
2023-08-16T04:10:37.915Z,19.88
2023-08-16T04:11:37.909Z,19.79
2023-08-16T04:12:37.877Z,19.88
2023-08-16T04:13:37.865Z,19.77
2023-08-16T04:14:37.886Z,19.81
2023-08-16T04:15:37.884Z,19.81
2023-08-16T04:16:37.878Z,19.76
2023-08-16T04:17:37.954Z,19.81
2023-08-16T04:18:37.862Z,19.84
2023-08-16T04:19:37.854Z,19.76
2023-08-16T04:20:37.874Z,19.71
2023-08-16T04:21:37.832Z,19.73
2023-08-16T04:22:37.806Z,19.56
2023-08-16T04:23:37.816Z,19.47
2023-08-16T04:24:37.826Z,19.41
2023-08-16T04:25:37.796Z,19.40
2023-08-16T04:26:37.775Z,19.39
2023-08-16T04:27:37.792Z,19.41
2023-08-16T04:28:37.755Z,19.39
2023-08-16T04:29:38.781Z,19.44
2023-08-16T04:30:37.765Z,19.37
2023-08-16T04:31:37.779Z,19.52
2023-08-16T04:32:37.795Z,19.49
2023-08-16T04:33:37.758Z,19.51
2023-08-16T04:34:37.722Z,19.51
2023-08-16T04:35:37.702Z,19.56
2023-08-16T04:36:37.748Z,19.58
2023-08-16T04:37:37.692Z,19.62
2023-08-16T04:38:37.709Z,19.55
2023-08-16T04:39:37.665Z,19.69
2023-08-16T04:40:37.694Z,19.66
2023-08-16T04:41:37.652Z,19.71
2023-08-16T04:42:37.675Z,19.81
2023-08-16T04:43:37.654Z,19.82
2023-08-16T04:44:37.660Z,19.82
2023-08-16T04:45:37.690Z,19.74
2023-08-16T04:46:37.626Z,19.81
2023-08-16T04:47:37.704Z,19.82
2023-08-16T04:48:37.626Z,19.76
2023-08-16T04:49:37.602Z,19.79
2023-08-16T04:50:37.613Z,19.89
2023-08-16T04:51:37.604Z,19.95
2023-08-16T04:52:37.628Z,19.94
2023-08-16T04:53:37.574Z,19.89
2023-08-16T04:54:37.615Z,20.02
2023-08-16T04:55:37.573Z,19.94
2023-08-16T04:56:37.540Z,19.92
2023-08-16T04:57:37.578Z,20.00
2023-08-16T04:58:37.552Z,20.09
2023-08-16T04:59:37.526Z,20.02
2023-08-16T05:00:37.555Z,20.03
2023-08-16T05:01:38.528Z,20.02
2023-08-16T05:02:37.686Z,20.03
2023-08-16T05:03:37.714Z,20.02
2023-08-16T05:04:37.489Z,19.96
2023-08-16T05:05:38.383Z,20.03
2023-08-16T05:06:37.492Z,20.06
2023-08-16T05:07:37.471Z,20.03
2023-08-16T05:08:38.349Z,19.94
2023-08-16T05:09:37.454Z,20.00
2023-08-16T05:10:37.702Z,19.95
2023-08-16T05:11:37.460Z,20.13
2023-08-16T05:12:37.445Z,20.11
2023-08-16T05:13:37.588Z,20.11
2023-08-16T05:14:37.427Z,20.19
2023-08-16T05:15:37.443Z,20.24
2023-08-16T05:16:37.449Z,20.26
2023-08-16T05:17:37.423Z,20.18
2023-08-16T05:18:37.380Z,20.19
2023-08-16T05:19:38.293Z,20.09
2023-08-16T05:20:38.402Z,20.14
2023-08-16T05:21:38.796Z,20.22
2023-08-16T05:22:37.384Z,20.21
2023-08-16T05:23:37.375Z,20.21
2023-08-16T05:24:37.360Z,20.31
2023-08-16T05:25:37.342Z,20.34
2023-08-16T05:26:37.355Z,20.32
2023-08-16T05:27:37.315Z,20.37
2023-08-16T05:28:37.305Z,20.26
2023-08-16T05:29:37.334Z,20.25
2023-08-16T05:30:37.317Z,20.28
2023-08-16T05:31:37.278Z,20.25
2023-08-16T05:32:37.372Z,20.26
2023-08-16T05:33:37.321Z,20.21
2023-08-16T05:34:37.264Z,20.22
2023-08-16T05:35:37.260Z,20.25
2023-08-16T05:36:37.253Z,20.36
2023-08-16T05:37:37.236Z,20.39
2023-08-16T05:38:37.252Z,20.28
2023-08-16T05:39:37.268Z,20.26
2023-08-16T05:40:37.215Z,20.39
2023-08-16T05:41:37.204Z,20.37
2023-08-16T05:42:37.218Z,20.40
2023-08-16T05:43:37.220Z,20.43
2023-08-16T05:44:37.202Z,20.55
2023-08-16T05:45:37.174Z,20.48
2023-08-16T05:46:37.202Z,20.51
2023-08-16T05:47:37.193Z,20.56
2023-08-16T05:48:37.158Z,20.43
2023-08-16T05:49:37.146Z,20.60
2023-08-16T05:50:37.158Z,20.50
2023-08-16T05:51:37.131Z,20.55
2023-08-16T05:52:37.158Z,20.43
2023-08-16T05:53:37.136Z,20.60
2023-08-16T05:54:37.158Z,20.50
2023-08-16T05:55:37.160Z,20.52
2023-08-16T05:56:37.097Z,20.47
2023-08-16T05:57:37.125Z,20.52
2023-08-16T05:58:37.109Z,20.47
2023-08-16T05:59:37.077Z,20.50
2023-08-16T06:00:37.071Z,20.50
2023-08-16T06:01:37.101Z,20.47
2023-08-16T06:02:37.164Z,20.39
2023-08-16T06:03:39.971Z,20.44
2023-08-16T06:04:37.033Z,20.52
2023-08-16T06:05:37.023Z,20.47
2023-08-16T06:06:37.015Z,20.41
2023-08-16T06:07:37.028Z,20.36
2023-08-16T06:08:36.998Z,20.43
2023-08-16T06:09:37.009Z,20.51
2023-08-16T06:10:36.994Z,20.37
2023-08-16T06:11:37.001Z,20.31
2023-08-16T06:12:36.994Z,20.32
2023-08-16T06:13:36.988Z,20.31
2023-08-16T06:14:39.450Z,20.39
2023-08-16T06:15:37.968Z,20.34
2023-08-16T06:16:36.987Z,20.44
2023-08-16T06:17:37.023Z,20.48
2023-08-16T06:18:36.947Z,20.44
2023-08-16T06:19:36.910Z,20.62
2023-08-16T06:20:36.918Z,20.52
2023-08-16T06:21:36.941Z,20.52
2023-08-16T06:22:36.893Z,20.65
2023-08-16T06:23:36.885Z,20.65
2023-08-16T06:24:36.883Z,20.69
2023-08-16T06:25:36.876Z,20.70
2023-08-16T06:26:36.898Z,20.74
2023-08-16T06:27:36.852Z,20.90
2023-08-16T06:28:36.866Z,20.90
2023-08-16T06:29:36.845Z,20.78
2023-08-16T06:30:36.885Z,20.69
2023-08-16T06:31:36.831Z,20.77
2023-08-16T06:32:36.917Z,20.87
2023-08-16T06:33:36.829Z,20.96
2023-08-16T06:34:36.808Z,20.93
2023-08-16T06:35:36.819Z,20.97
2023-08-16T06:36:36.787Z,20.80
2023-08-16T06:37:38.391Z,20.80
2023-08-16T06:38:36.786Z,20.88
2023-08-16T06:39:36.799Z,20.80
2023-08-16T06:40:36.815Z,20.67
2023-08-16T06:41:36.758Z,20.60
2023-08-16T06:42:36.764Z,20.59
2023-08-16T06:43:36.749Z,20.65
2023-08-16T06:44:36.783Z,20.58
2023-08-16T06:45:36.742Z,20.52
2023-08-16T06:46:36.742Z,20.62
2023-08-16T06:47:36.771Z,20.66
2023-08-16T06:48:36.694Z,20.69
2023-08-16T06:49:36.713Z,20.63
2023-08-16T06:50:36.709Z,20.81
2023-08-16T06:51:36.672Z,20.99
2023-08-16T06:52:36.674Z,20.97
2023-08-16T06:53:36.695Z,21.15
2023-08-16T06:54:36.700Z,21.17
2023-08-16T06:55:36.646Z,21.09
2023-08-16T06:56:37.711Z,21.24
2023-08-16T06:57:36.629Z,21.39
2023-08-16T06:58:36.677Z,21.37
2023-08-16T06:59:36.645Z,21.27
2023-08-16T07:00:36.650Z,21.36
2023-08-16T07:01:36.643Z,21.45
2023-08-16T07:02:36.687Z,21.39
2023-08-16T07:03:36.733Z,21.42
2023-08-16T07:04:36.588Z,21.42
2023-08-16T07:05:36.579Z,21.57
2023-08-16T07:06:36.608Z,21.54
2023-08-16T07:07:36.565Z,21.51
2023-08-16T07:08:36.593Z,21.60
2023-08-16T07:09:36.563Z,21.52
2023-08-16T07:10:36.543Z,21.61
2023-08-16T07:11:36.532Z,21.66
2023-08-16T07:12:36.742Z,21.58
2023-08-16T07:13:36.532Z,21.55
2023-08-16T07:14:36.526Z,21.51
2023-08-16T07:15:36.531Z,21.64
2023-08-16T07:16:36.617Z,21.51
2023-08-16T07:17:36.517Z,21.43
2023-08-16T07:18:37.480Z,21.33
2023-08-16T07:19:36.497Z,21.42
2023-08-16T07:20:36.482Z,21.42
2023-08-16T07:21:36.486Z,21.40
2023-08-16T07:22:36.485Z,21.51
2023-08-16T07:23:36.450Z,21.52
2023-08-16T07:24:36.461Z,21.66
2023-08-16T07:25:36.433Z,21.83
2023-08-16T07:26:36.440Z,21.73
2023-08-16T07:27:36.476Z,21.83
2023-08-16T07:28:36.421Z,21.80
2023-08-16T07:29:36.396Z,21.88
2023-08-16T07:30:36.396Z,21.98
2023-08-16T07:31:37.427Z,22.02
2023-08-16T07:32:36.583Z,21.96
2023-08-16T07:33:36.382Z,22.13
2023-08-16T07:34:36.370Z,22.14
2023-08-16T07:35:37.340Z,21.99
2023-08-16T07:36:36.376Z,22.06
2023-08-16T07:37:36.340Z,21.96
2023-08-16T07:38:36.383Z,22.10
2023-08-16T07:39:36.352Z,22.23
2023-08-16T07:40:36.368Z,22.50
2023-08-16T07:41:36.355Z,22.51
2023-08-16T07:42:36.311Z,22.63
2023-08-16T07:43:36.319Z,22.72
2023-08-16T07:44:36.389Z,22.90
2023-08-16T07:45:36.495Z,22.87
2023-08-16T07:46:36.454Z,22.93
2023-08-16T07:47:36.479Z,23.03
2023-08-16T07:48:36.467Z,23.17
2023-08-16T07:49:36.332Z,23.15
2023-08-16T07:50:36.477Z,23.09
2023-08-16T07:51:36.244Z,23.18
2023-08-16T07:52:36.252Z,23.32
2023-08-16T07:53:36.241Z,23.41
2023-08-16T07:54:37.254Z,23.46
2023-08-16T07:55:36.244Z,23.36
2023-08-16T07:56:36.269Z,23.39
2023-08-16T07:57:36.203Z,23.23
2023-08-16T07:58:36.191Z,23.28
2023-08-16T07:59:36.252Z,23.17
2023-08-16T08:00:36.197Z,23.25
2023-08-16T08:01:37.217Z,23.15
2023-08-16T08:02:48.660Z,23.21
2023-08-16T08:03:38.186Z,23.09
2023-08-16T08:04:36.199Z,22.96
2023-08-16T08:05:36.182Z,22.94
2023-08-16T08:06:36.166Z,22.96
2023-08-16T08:07:36.138Z,22.94
2023-08-16T08:08:36.144Z,23.09
2023-08-16T08:09:36.284Z,23.15
2023-08-16T08:10:36.154Z,23.15
2023-08-16T08:11:36.108Z,23.21
2023-08-16T08:12:36.094Z,23.23
2023-08-16T08:13:36.154Z,23.24
2023-08-16T08:14:36.093Z,23.32
2023-08-16T08:15:36.107Z,23.36
2023-08-16T08:16:36.155Z,23.43
2023-08-16T08:17:36.112Z,23.28
2023-08-16T08:18:36.069Z,23.48
2023-08-16T08:19:36.057Z,23.44
2023-08-16T08:20:36.081Z,23.46
2023-08-16T08:21:36.031Z,23.55
2023-08-16T08:22:36.060Z,23.61
2023-08-16T08:23:36.179Z,23.73
2023-08-16T08:24:36.085Z,23.78
2023-08-16T08:25:36.023Z,23.74
2023-08-16T08:26:36.019Z,23.68
2023-08-16T08:27:36.008Z,23.88
2023-08-16T08:28:35.993Z,24.08
2023-08-16T08:29:36.050Z,23.87
2023-08-16T08:30:35.962Z,23.99
2023-08-16T08:31:36.050Z,24.21
2023-08-16T08:32:35.998Z,24.39
2023-08-16T08:33:35.993Z,24.36
2023-08-16T08:34:36.934Z,24.50
2023-08-16T08:35:35.968Z,24.69
2023-08-16T08:36:36.371Z,24.65
2023-08-16T08:37:35.910Z,24.76
2023-08-16T08:38:35.923Z,24.66
2023-08-16T08:39:35.922Z,24.78
2023-08-16T08:40:35.900Z,24.84
2023-08-16T08:41:47.359Z,24.95
2023-08-16T08:42:37.948Z,24.86
2023-08-16T08:43:39.477Z,24.95
2023-08-16T08:44:37.877Z,24.95
2023-08-16T08:45:35.891Z,25.07
2023-08-16T08:46:35.945Z,25.22
2023-08-16T08:47:35.872Z,25.22
2023-08-16T08:48:36.040Z,25.29
2023-08-16T08:49:36.850Z,25.41
2023-08-16T08:50:35.842Z,25.35
2023-08-16T08:51:35.819Z,25.29
2023-08-16T08:52:35.836Z,24.99
2023-08-16T08:53:35.808Z,25.23
2023-08-16T08:54:35.817Z,25.38
2023-08-16T08:55:35.844Z,25.48
2023-08-16T08:56:35.787Z,25.43
2023-08-16T08:57:35.800Z,25.68
2023-08-16T08:58:35.766Z,26.15
2023-08-16T08:59:35.833Z,26.56
2023-08-16T09:00:35.774Z,26.47
2023-08-16T09:01:35.843Z,26.62
2023-08-16T09:02:35.757Z,26.63
2023-08-16T09:03:35.774Z,26.73
2023-08-16T09:04:35.763Z,26.71
2023-08-16T09:05:35.713Z,26.84
2023-08-16T09:06:35.719Z,27.36
2023-08-16T09:07:35.721Z,27.63
2023-08-16T09:08:35.716Z,27.68
2023-08-16T09:09:36.717Z,28.00
2023-08-16T09:10:35.684Z,27.58
2023-08-16T09:11:35.678Z,27.12
2023-08-16T09:12:35.702Z,26.66
2023-08-16T09:13:35.718Z,26.48
2023-08-16T09:14:35.674Z,26.16
2023-08-16T09:15:35.660Z,25.98
2023-08-16T09:16:35.647Z,25.65
2023-08-16T09:17:35.728Z,25.62
2023-08-16T09:18:35.648Z,25.38
2023-08-16T09:19:35.611Z,25.26
2023-08-16T09:20:35.622Z,25.43
2023-08-16T09:21:35.599Z,25.63
2023-08-16T09:22:35.609Z,26.13
2023-08-16T09:23:35.619Z,26.10
2023-08-16T09:24:35.602Z,25.98
2023-08-16T09:25:35.629Z,25.07
2023-08-16T09:26:35.596Z,24.98
2023-08-16T09:27:35.593Z,25.35
2023-08-16T09:28:35.554Z,25.83
2023-08-16T09:29:35.560Z,26.23
2023-08-16T09:30:35.547Z,26.47
2023-08-16T09:31:35.581Z,26.41
2023-08-16T09:32:35.629Z,26.29
2023-08-16T09:33:35.513Z,26.41
2023-08-16T09:34:35.913Z,26.44
2023-08-16T09:35:36.504Z,26.75
2023-08-16T09:36:35.562Z,26.73
2023-08-16T09:37:35.508Z,26.84
2023-08-16T09:39:36.485Z,26.75
2023-08-16T09:40:35.470Z,26.73
2023-08-16T09:41:35.807Z,26.70
2023-08-16T09:42:35.501Z,26.66
2023-08-16T09:43:35.468Z,26.71
2023-08-16T09:44:35.480Z,26.56
2023-08-16T09:45:35.491Z,26.13
2023-08-16T09:46:35.521Z,26.15
2023-08-16T09:48:37.028Z,26.29
2023-08-16T09:49:35.417Z,26.13
2023-08-16T09:50:35.640Z,25.96
2023-08-16T09:52:36.412Z,26.16
2023-08-16T09:53:36.601Z,26.26
2023-08-16T09:54:36.423Z,26.09
2023-08-16T09:55:35.438Z,25.90
2023-08-16T09:56:38.065Z,25.17
2023-08-16T09:57:36.338Z,24.69
2023-08-16T09:58:35.371Z,24.55
2023-08-16T09:59:37.703Z,24.85
2023-08-16T10:00:36.408Z,25.04
2023-08-16T10:01:35.674Z,25.17
2023-08-16T10:03:36.396Z,25.65
2023-08-16T10:06:39.265Z,25.95
2023-08-16T10:07:36.283Z,26.00
2023-08-16T10:08:35.265Z,26.15
2023-08-16T10:09:35.319Z,26.10
2023-08-16T10:10:35.254Z,26.22
2023-08-16T10:11:35.245Z,26.10
2023-08-16T10:12:35.613Z,26.13
2023-08-16T10:13:35.379Z,25.63
2023-08-16T10:14:35.238Z,25.63
2023-08-16T10:15:35.244Z,25.59
2023-08-16T10:16:35.266Z,25.72
2023-08-16T10:17:35.231Z,25.63
2023-08-16T10:18:35.216Z,25.91
2023-08-16T10:19:35.452Z,25.93
2023-08-16T10:20:35.189Z,26.48
2023-08-16T10:21:35.199Z,26.70
2023-08-16T10:22:35.947Z,26.73
2023-08-16T10:23:35.369Z,26.90
2023-08-16T10:25:37.463Z,27.27
2023-08-16T10:26:35.132Z,28.00
2023-08-16T10:27:35.156Z,28.30
2023-08-16T10:28:35.130Z,28.41
2023-08-16T10:29:35.102Z,28.14
2023-08-16T10:30:35.146Z,28.14
2023-08-16T10:31:35.313Z,28.57
2023-08-16T10:32:35.143Z,28.69
2023-08-16T10:33:35.143Z,28.20
2023-08-16T10:34:35.092Z,27.98
2023-08-16T10:35:35.074Z,27.70
2023-08-16T10:36:35.060Z,26.58
2023-08-16T10:37:39.930Z,25.70
2023-08-16T10:38:38.459Z,25.32
2023-08-16T10:39:35.048Z,25.16
2023-08-16T10:40:35.048Z,25.32
2023-08-16T10:41:35.077Z,25.16
2023-08-16T10:42:35.065Z,25.03
2023-08-16T10:43:35.024Z,25.32
2023-08-16T10:44:35.002Z,25.58
2023-08-16T10:46:36.095Z,26.15
2023-08-16T10:47:35.032Z,26.31
2023-08-16T10:48:34.967Z,26.51
2023-08-16T10:49:34.961Z,26.23
2023-08-16T10:50:34.963Z,25.91
2023-08-16T10:51:34.976Z,25.41
2023-08-16T10:52:34.987Z,25.11
2023-08-16T10:53:34.979Z,24.76
2023-08-16T10:54:34.920Z,24.68
2023-08-16T10:55:34.981Z,24.63
2023-08-16T10:56:34.953Z,24.53
2023-08-16T10:57:35.048Z,24.55
2023-08-16T10:58:34.925Z,24.73
2023-08-16T10:59:34.914Z,24.88
2023-08-16T11:00:34.914Z,24.95
2023-08-16T11:01:35.000Z,25.14
2023-08-16T11:02:35.967Z,25.26
2023-08-16T11:03:34.946Z,25.51
2023-08-16T11:04:34.874Z,25.69
2023-08-16T11:05:35.066Z,25.83
2023-08-16T11:06:38.431Z,26.02
2023-08-16T11:07:35.853Z,26.15
2023-08-16T11:08:34.828Z,26.19
2023-08-16T11:09:34.825Z,26.09
2023-08-16T11:10:35.809Z,26.25
2023-08-16T11:11:34.819Z,26.47
2023-08-16T11:12:34.818Z,26.62
2023-08-16T11:13:34.787Z,26.66
2023-08-16T11:14:34.810Z,26.41
2023-08-16T11:15:34.789Z,26.60
2023-08-16T11:16:34.849Z,26.74
2023-08-16T11:17:34.861Z,26.70
2023-08-16T11:18:35.837Z,26.88
2023-08-16T11:19:35.900Z,27.00
2023-08-16T11:20:34.821Z,26.90
2023-08-16T11:21:34.725Z,27.03
2023-08-16T11:22:35.739Z,27.02
2023-08-16T11:23:34.726Z,26.99
2023-08-16T11:24:34.733Z,26.95
2023-08-16T11:25:34.742Z,27.15
2023-08-16T11:26:34.692Z,27.35
2023-08-16T11:27:34.716Z,27.67
2023-08-16T11:28:34.695Z,27.64
2023-08-16T11:29:34.712Z,27.60
2023-08-16T11:30:34.677Z,27.65
2023-08-16T11:31:34.734Z,27.86
2023-08-16T11:32:34.692Z,27.65
2023-08-16T11:33:34.675Z,27.39
2023-08-16T11:34:34.712Z,27.27
2023-08-16T11:35:34.648Z,27.44
2023-08-16T11:36:34.661Z,27.65
2023-08-16T11:37:34.694Z,27.42
2023-08-16T11:38:34.646Z,26.74
2023-08-16T11:39:35.329Z,26.68
2023-08-16T11:40:34.610Z,27.12
2023-08-16T11:41:35.456Z,27.22
2023-08-16T11:42:34.649Z,27.64
2023-08-16T11:43:34.634Z,28.05
2023-08-16T11:44:35.297Z,28.38
2023-08-16T11:45:34.601Z,28.96
2023-08-16T11:46:34.628Z,29.54
2023-08-16T11:47:34.732Z,30.09
2023-08-16T11:48:34.558Z,31.85
2023-08-16T11:49:34.618Z,31.99
2023-08-16T11:50:34.542Z,32.07
2023-08-16T11:51:34.522Z,32.68
2023-08-16T11:52:34.550Z,33.04
2023-08-16T11:53:34.534Z,32.55
2023-08-16T11:54:34.513Z,32.43
2023-08-16T11:55:34.576Z,31.70
2023-08-16T11:56:34.512Z,30.91
2023-08-16T11:57:35.472Z,29.19
2023-08-16T11:58:34.518Z,28.84
2023-08-16T11:59:34.631Z,29.44
2023-08-16T12:00:34.526Z,30.15
2023-08-16T12:01:34.611Z,29.90
2023-08-16T12:02:34.534Z,30.63
2023-08-16T12:03:34.496Z,31.61
2023-08-16T12:04:34.563Z,32.18
2023-08-16T12:05:34.481Z,32.18
2023-08-16T12:06:34.491Z,32.09
2023-08-16T12:07:34.438Z,32.12
2023-08-16T12:08:34.482Z,32.38
2023-08-16T12:09:34.437Z,32.85
2023-08-16T12:10:34.445Z,33.31
2023-08-16T12:11:34.500Z,33.50
2023-08-16T12:12:34.421Z,32.71
2023-08-16T12:13:34.395Z,32.59
2023-08-16T12:14:34.388Z,32.60
2023-08-16T12:15:34.401Z,30.88
2023-08-16T12:16:34.395Z,29.51
2023-08-16T12:17:34.399Z,29.56
2023-08-16T12:18:34.367Z,28.75
2023-08-16T12:19:34.353Z,28.20
2023-08-16T12:20:34.480Z,28.32
2023-08-16T12:21:34.338Z,28.22
2023-08-16T12:22:34.361Z,27.92
2023-08-16T12:23:34.334Z,27.77
2023-08-16T12:24:34.340Z,28.10
2023-08-16T12:25:34.574Z,29.04
2023-08-16T12:26:34.305Z,28.88
2023-08-16T12:27:34.320Z,28.57
2023-08-16T12:28:34.292Z,29.01
2023-08-16T12:29:34.326Z,29.08
2023-08-16T12:30:34.298Z,29.36
2023-08-16T12:31:35.538Z,30.09
2023-08-16T12:32:35.334Z,31.25
2023-08-16T12:33:34.308Z,31.74
2023-08-16T12:34:34.963Z,31.58
2023-08-16T12:35:34.484Z,31.85
2023-08-16T12:36:34.248Z,32.36
2023-08-16T12:37:37.531Z,33.40
2023-08-16T12:38:35.272Z,33.49
2023-08-16T12:39:34.318Z,32.77
2023-08-16T12:40:34.215Z,33.24
2023-08-16T12:41:34.202Z,33.71
2023-08-16T12:42:34.225Z,34.30
2023-08-16T12:43:37.563Z,34.95
2023-08-16T12:44:36.184Z,34.89
2023-08-16T12:45:34.253Z,33.98
2023-08-16T12:46:34.192Z,34.42
2023-08-16T12:47:34.203Z,34.93
2023-08-16T12:48:34.304Z,33.69
2023-08-16T12:49:34.155Z,32.64
2023-08-16T12:50:34.134Z,32.59
2023-08-16T12:51:34.129Z,32.40
2023-08-16T12:52:34.139Z,31.92
2023-08-16T12:54:37.441Z,31.84
2023-08-16T12:56:35.082Z,31.40
2023-08-16T12:58:35.190Z,30.84
2023-08-16T12:59:34.071Z,30.81
2023-08-16T13:01:42.370Z,30.87
2023-08-16T13:02:37.351Z,30.53
2023-08-16T13:03:35.482Z,30.35
2023-08-16T13:04:36.738Z,30.09